createdAt,value
2018-03-15T00:02:09.403Z,12.57
2018-03-15T00:04:37.638Z,13.33
2018-03-15T00:07:05.884Z,13.13
2018-03-15T00:09:34.894Z,12.60
2018-03-15T00:12:03.913Z,15.50
2018-03-15T00:14:32.150Z,13.53
2018-03-15T00:17:01.145Z,12.60
2018-03-15T00:19:30.160Z,11.53
2018-03-15T00:21:58.388Z,14.77
2018-03-15T00:24:26.638Z,13.30
2018-03-15T00:26:54.873Z,12.07
2018-03-15T00:29:23.120Z,14.87
2018-03-15T00:31:52.117Z,11.43
2018-03-15T00:34:21.128Z,13.47
2018-03-15T00:36:49.356Z,13.93
2018-03-15T00:39:17.861Z,11.73
2018-03-15T00:41:46.089Z,14.13
2018-03-15T00:44:14.348Z,14.53
2018-03-15T00:46:42.580Z,16.67
2018-03-15T00:49:11.591Z,18.60
2018-03-15T00:51:39.828Z,16.43
2018-03-15T00:54:08.072Z,16.30
2018-03-15T00:56:36.316Z,14.03
2018-03-15T00:59:05.316Z,15.23
2018-03-15T01:01:33.557Z,13.53
2018-03-15T01:04:02.564Z,14.50
2018-03-15T01:06:30.807Z,18.47
2018-03-15T01:09:00.061Z,14.53
2018-03-15T01:11:28.295Z,17.70
2018-03-15T01:13:57.300Z,15.10
2018-03-15T01:16:26.292Z,14.50
2018-03-15T01:18:55.305Z,14.07
2018-03-15T01:21:23.532Z,15.13
2018-03-15T01:23:51.763Z,14.20
2018-03-15T01:26:20.007Z,16.63
2018-03-15T01:28:48.240Z,15.90
2018-03-15T01:31:16.501Z,16.37
2018-03-15T01:33:44.730Z,18.53
2018-03-15T01:36:12.990Z,14.73
2018-03-15T01:38:41.213Z,16.27
2018-03-15T01:41:09.740Z,15.47
2018-03-15T01:43:37.968Z,16.87
2018-03-15T01:46:06.211Z,17.67
2018-03-15T01:48:34.449Z,14.73
2018-03-15T01:51:02.708Z,16.43
2018-03-15T01:53:30.945Z,18.00
2018-03-15T01:55:59.225Z,17.10
2018-03-15T01:58:27.453Z,16.80
2018-03-15T02:00:56.470Z,15.73
2018-03-15T02:03:24.697Z,16.10
2018-03-15T02:05:52.952Z,16.50
2018-03-15T02:08:21.189Z,17.70
2018-03-15T02:10:49.441Z,15.00
2018-03-15T02:13:18.445Z,15.67
2018-03-15T02:15:47.462Z,17.30
2018-03-15T02:18:15.701Z,17.77
2018-03-15T02:20:44.712Z,20.20
2018-03-15T02:23:12.940Z,20.70
2018-03-15T02:25:41.188Z,18.07
2018-03-15T02:28:09.420Z,17.23
2018-03-15T02:30:38.430Z,17.37
2018-03-15T02:33:06.657Z,20.33
2018-03-15T02:35:34.888Z,23.13
2018-03-15T02:38:03.132Z,17.73
2018-03-15T02:40:32.137Z,16.77
2018-03-15T02:43:00.385Z,18.07
2018-03-15T02:45:28.641Z,18.17
2018-03-15T02:47:56.928Z,16.77
2018-03-15T02:50:25.149Z,15.73
2018-03-15T02:52:53.447Z,19.33
2018-03-15T02:55:22.388Z,17.93
2018-03-15T02:57:51.400Z,17.33
2018-03-15T03:00:19.633Z,18.50
2018-03-15T03:02:47.879Z,18.37
2018-03-15T03:05:16.110Z,20.97
2018-03-15T03:07:44.354Z,20.30
2018-03-15T03:10:12.588Z,21.03
2018-03-15T03:12:40.836Z,20.67
2018-03-15T03:15:09.060Z,21.67
2018-03-15T03:17:37.300Z,20.17
2018-03-15T03:20:05.535Z,22.17
2018-03-15T03:22:34.544Z,22.17
2018-03-15T03:25:02.772Z,23.13
2018-03-15T03:27:31.024Z,20.13
2018-03-15T03:29:59.260Z,21.33
2018-03-15T03:32:28.265Z,22.80
2018-03-15T03:34:56.509Z,22.90
2018-03-15T03:37:24.768Z,21.40
2018-03-15T03:39:53.005Z,21.07
2018-03-15T03:42:21.269Z,24.70
2018-03-15T03:44:49.490Z,23.87
2018-03-15T03:47:17.754Z,23.40
2018-03-15T03:49:45.988Z,26.17
2018-03-15T03:52:14.229Z,24.83
2018-03-15T03:54:43.246Z,25.90
2018-03-15T03:57:11.483Z,26.00
2018-03-15T03:59:39.720Z,29.00
2018-03-15T04:02:07.948Z,26.20
2018-03-15T04:04:36.968Z,27.07
2018-03-15T04:07:05.513Z,24.57
2018-03-15T04:09:33.749Z,27.03
2018-03-15T04:12:01.990Z,29.20
2018-03-15T04:14:30.229Z,27.10
2018-03-15T04:16:59.229Z,28.90
2018-03-15T04:19:28.239Z,27.47
2018-03-15T04:21:56.469Z,31.33
2018-03-15T04:24:24.762Z,29.40
2018-03-15T04:26:52.969Z,35.33
2018-03-15T04:29:21.213Z,35.27
2018-03-15T04:31:50.218Z,37.20
2018-03-15T04:34:19.233Z,37.33
2018-03-15T04:36:47.469Z,43.33
2018-03-15T04:39:16.478Z,41.43
2018-03-15T04:41:44.711Z,42.20
2018-03-15T04:44:12.956Z,40.87
2018-03-15T04:46:41.193Z,45.47
2018-03-15T04:49:10.201Z,49.57
2018-03-15T04:51:38.441Z,50.03
2018-03-15T04:54:06.689Z,48.70
2018-03-15T04:56:34.921Z,50.83
2018-03-15T04:59:03.165Z,49.47
2018-03-15T05:01:32.178Z,52.60
2018-03-15T05:04:01.162Z,51.63
2018-03-15T05:06:30.176Z,51.37
2018-03-15T05:08:58.420Z,54.73
2018-03-15T05:11:27.424Z,53.87
2018-03-15T05:13:56.419Z,53.87
2018-03-15T05:16:24.668Z,54.80
2018-03-15T05:18:52.904Z,48.23
2018-03-15T05:21:21.144Z,49.73
2018-03-15T05:23:49.388Z,44.93
2018-03-15T05:26:17.628Z,47.43
2018-03-15T05:28:45.860Z,46.87
2018-03-15T05:31:14.116Z,46.87
2018-03-15T05:33:42.326Z,46.80
2018-03-15T05:36:10.572Z,49.63
2018-03-15T05:38:39.616Z,51.13
2018-03-15T05:41:07.842Z,52.87
2018-03-15T05:43:36.845Z,49.93
2018-03-15T05:46:05.177Z,48.37
2018-03-15T05:48:33.412Z,56.13
2018-03-15T05:51:01.665Z,48.53
2018-03-15T05:53:29.897Z,53.37
2018-03-15T05:55:58.144Z,53.67
2018-03-15T05:58:26.403Z,52.37
2018-03-15T06:00:54.706Z,49.67
2018-03-15T06:03:22.936Z,50.23
2018-03-15T06:05:51.176Z,49.20
2018-03-15T06:08:19.412Z,48.23
2018-03-15T06:10:47.656Z,51.07
2018-03-15T06:13:15.889Z,47.47
2018-03-15T06:15:44.120Z,49.07
2018-03-15T06:18:12.360Z,47.93
2018-03-15T06:20:41.360Z,44.17
2018-03-15T06:23:10.374Z,40.07
2018-03-15T06:25:38.608Z,44.23
2018-03-15T06:28:07.624Z,41.80
2018-03-15T06:30:35.862Z,40.50
2018-03-15T06:33:04.112Z,40.47
2018-03-15T06:35:32.344Z,41.60
2018-03-15T06:38:00.593Z,40.33
2018-03-15T06:40:28.836Z,42.87
2018-03-15T06:42:57.068Z,39.03
2018-03-15T06:45:25.303Z,37.27
2018-03-15T06:47:53.548Z,36.77
2018-03-15T06:50:21.793Z,38.90
2018-03-15T06:52:50.040Z,39.77
2018-03-15T06:55:19.045Z,36.97
2018-03-15T06:57:48.059Z,38.20
2018-03-15T07:00:16.319Z,34.53
2018-03-15T07:02:44.572Z,32.00
2018-03-15T07:05:13.569Z,33.10
2018-03-15T07:07:42.576Z,30.20
2018-03-15T07:10:10.804Z,29.60
2018-03-15T07:12:39.056Z,27.27
2018-03-15T07:15:07.288Z,26.87
2018-03-15T07:17:36.297Z,26.90
2018-03-15T07:20:04.530Z,24.97
2018-03-15T07:22:32.777Z,26.80
2018-03-15T07:25:01.008Z,25.67
2018-03-15T07:27:29.237Z,26.53
2018-03-15T07:29:57.485Z,26.20
2018-03-15T07:32:25.720Z,26.17
2018-03-15T07:34:54.737Z,27.73
2018-03-15T07:37:22.975Z,26.57
2018-03-15T07:39:51.224Z,24.33
2018-03-15T07:42:19.458Z,23.87
2018-03-15T07:44:47.712Z,26.47
2018-03-15T07:47:16.713Z,26.03
2018-03-15T07:49:44.961Z,22.17
2018-03-15T07:52:13.194Z,23.00
2018-03-15T07:54:41.441Z,25.93
2018-03-15T07:57:09.671Z,23.27
2018-03-15T07:59:37.908Z,25.23
2018-03-15T08:02:06.435Z,25.33
2018-03-15T08:04:34.681Z,24.50
2018-03-15T08:07:03.196Z,24.33
2018-03-15T08:09:31.428Z,25.67
2018-03-15T08:11:59.657Z,25.60
2018-03-15T08:14:27.913Z,26.07
2018-03-15T08:16:57.214Z,22.87
2018-03-15T08:19:25.449Z,24.67
2018-03-15T08:21:53.676Z,24.33
2018-03-15T08:24:21.923Z,26.40
2018-03-15T08:26:50.158Z,24.10
2018-03-15T08:29:18.397Z,25.63
2018-03-15T08:31:46.633Z,23.70
2018-03-15T08:34:14.873Z,25.13
2018-03-15T08:36:43.112Z,25.47
2018-03-15T08:39:12.117Z,22.33
2018-03-15T08:41:40.572Z,24.27
2018-03-15T08:44:08.816Z,23.57
2018-03-15T08:46:37.055Z,22.17
2018-03-15T08:49:05.304Z,21.33
2018-03-15T08:51:34.301Z,22.97
2018-03-15T08:54:03.298Z,19.87
2018-03-15T08:56:31.553Z,21.13
2018-03-15T08:58:59.779Z,17.00
2018-03-15T09:01:28.024Z,18.20
2018-03-15T09:03:56.481Z,21.10
2018-03-15T09:06:25.610Z,18.97
2018-03-15T09:08:53.719Z,20.07
2018-03-15T09:11:21.964Z,18.13
2018-03-15T09:13:50.198Z,20.07
2018-03-15T09:16:19.213Z,19.10
2018-03-15T09:18:47.447Z,21.43
2018-03-15T09:21:15.692Z,21.53
2018-03-15T09:23:43.921Z,20.07
2018-03-15T09:26:12.162Z,21.70
2018-03-15T09:28:40.391Z,22.17
2018-03-15T09:31:08.637Z,20.00
2018-03-15T09:33:37.633Z,20.13
2018-03-15T09:36:05.885Z,21.00
2018-03-15T09:38:34.116Z,21.70
2018-03-15T09:41:02.353Z,19.67
2018-03-15T09:43:30.585Z,20.93
2018-03-15T09:45:58.851Z,18.73
2018-03-15T09:48:27.078Z,20.03
2018-03-15T09:50:55.323Z,18.17
2018-03-15T09:53:23.577Z,21.73
2018-03-15T09:55:51.810Z,18.53
2018-03-15T09:58:20.057Z,19.47
2018-03-15T10:00:49.067Z,20.30
2018-03-15T10:03:17.312Z,18.87
2018-03-15T10:05:46.369Z,20.30
2018-03-15T10:08:14.593Z,18.87
2018-03-15T10:10:43.597Z,20.77
2018-03-15T10:13:12.251Z,20.37
2018-03-15T10:15:40.489Z,19.50
2018-03-15T10:18:09.506Z,19.77
2018-03-15T10:20:37.739Z,19.67
2018-03-15T10:23:05.993Z,20.00
2018-03-15T10:25:34.238Z,18.17
2018-03-15T10:28:02.465Z,18.43
2018-03-15T10:30:30.717Z,20.60
2018-03-15T10:35:59.642Z,18.03
2018-03-15T10:38:27.890Z,19.87
2018-03-15T10:40:56.125Z,18.47
2018-03-15T10:43:24.371Z,21.20
2018-03-15T10:45:52.629Z,19.83
2018-03-15T10:48:20.869Z,20.50
2018-03-15T10:50:49.868Z,18.30
2018-03-15T10:53:18.893Z,17.70
2018-03-15T10:55:47.128Z,17.83
2018-03-15T10:58:16.148Z,17.90
2018-03-15T11:00:49.939Z,17.83
2018-03-15T11:03:18.190Z,18.50
2018-03-15T11:05:48.977Z,18.70
2018-03-15T11:08:22.771Z,17.97
2018-03-15T11:10:51.008Z,17.80
2018-03-15T11:13:20.021Z,20.00
2018-03-15T11:15:48.260Z,18.77
2018-03-15T11:18:16.526Z,19.70
2018-03-15T11:20:44.793Z,18.37
2018-03-15T11:23:13.032Z,17.40
2018-03-15T11:25:41.280Z,18.57
2018-03-15T11:28:10.273Z,18.60
2018-03-15T11:30:39.287Z,21.17
2018-03-15T11:33:07.519Z,18.73
2018-03-15T11:35:36.531Z,18.83
2018-03-15T11:38:04.760Z,19.20
2018-03-15T11:40:33.017Z,19.30
2018-03-15T11:43:01.257Z,19.67
2018-03-15T11:45:29.509Z,20.17
2018-03-15T11:47:58.516Z,19.67
2018-03-15T11:50:27.521Z,19.77
2018-03-15T11:52:55.751Z,19.73
2018-03-15T11:55:23.997Z,19.87
2018-03-15T11:57:52.230Z,21.40
2018-03-15T12:00:21.246Z,20.37
2018-03-15T12:02:49.471Z,19.70
2018-03-15T12:05:17.716Z,21.57
2018-03-15T12:07:46.018Z,21.83
2018-03-15T12:10:14.197Z,22.17
2018-03-15T12:12:42.445Z,23.20
2018-03-15T12:15:10.688Z,23.47
2018-03-15T12:17:38.926Z,23.13
2018-03-15T12:20:07.938Z,22.77
2018-03-15T12:22:36.177Z,23.40
2018-03-15T12:25:04.420Z,23.43
2018-03-15T12:27:32.710Z,24.80
2018-03-15T12:30:00.960Z,23.67
2018-03-15T12:32:29.184Z,21.90
2018-03-15T12:34:58.482Z,24.17
2018-03-15T12:37:27.499Z,23.00
2018-03-15T12:39:55.720Z,23.80
2018-03-15T12:42:23.976Z,23.67
2018-03-15T12:44:52.420Z,21.93
2018-03-15T12:47:20.663Z,23.73
2018-03-15T12:49:48.893Z,22.67
2018-03-15T12:52:17.145Z,24.83
2018-03-15T12:54:45.384Z,22.80
2018-03-15T12:57:13.635Z,21.83
2018-03-15T12:59:41.856Z,24.00
2018-03-15T13:02:10.872Z,23.23
2018-03-15T13:04:39.102Z,22.73
2018-03-15T13:07:07.344Z,23.33
2018-03-15T13:09:35.576Z,22.93
2018-03-15T13:12:03.823Z,23.23
2018-03-15T13:14:32.057Z,23.30
2018-03-15T13:17:00.297Z,23.47
2018-03-15T13:19:28.528Z,23.40
2018-03-15T13:21:56.777Z,23.43
2018-03-15T13:24:25.005Z,24.33
2018-03-15T13:26:54.027Z,24.63
2018-03-15T13:29:22.256Z,25.73
2018-03-15T13:31:50.504Z,23.47
2018-03-15T13:34:18.738Z,23.90
2018-03-15T13:36:47.281Z,23.67
2018-03-15T13:39:15.511Z,23.87
2018-03-15T13:41:44.137Z,24.57
2018-03-15T13:44:12.336Z,25.37
2018-03-15T13:46:40.584Z,23.93
2018-03-15T13:49:08.838Z,25.47
2018-03-15T13:51:37.062Z,24.77
2018-03-15T13:54:05.308Z,25.80
2018-03-15T13:56:33.536Z,26.20
2018-03-15T13:59:01.780Z,27.33
2018-03-15T14:01:30.019Z,25.80
2018-03-15T14:03:58.260Z,27.27
2018-03-15T14:06:26.492Z,26.70
2018-03-15T14:08:55.561Z,27.10
2018-03-15T14:11:23.740Z,25.40
2018-03-15T14:13:51.980Z,24.97
2018-03-15T14:16:20.217Z,27.07
2018-03-15T14:18:48.465Z,25.60
2018-03-15T14:21:16.696Z,27.07
2018-03-15T14:23:44.950Z,26.43
2018-03-15T14:26:13.188Z,27.90
2018-03-15T14:28:42.196Z,29.80
2018-03-15T14:31:11.201Z,29.57
2018-03-15T14:33:39.457Z,28.33
2018-03-15T14:36:07.699Z,29.50
2018-03-15T14:38:35.944Z,27.00
2018-03-15T14:41:04.176Z,26.67
2018-03-15T14:43:33.176Z,28.17
2018-03-15T14:46:01.418Z,29.30
2018-03-15T14:48:29.665Z,27.70
2018-03-15T14:50:57.892Z,28.70
2018-03-15T14:53:26.905Z,28.87
2018-03-15T14:55:55.140Z,28.03
2018-03-15T14:58:23.384Z,29.13
2018-03-15T15:00:51.624Z,27.80
2018-03-15T15:03:19.857Z,28.37
2018-03-15T15:05:48.113Z,28.07
2018-03-15T15:08:16.341Z,29.97
2018-03-15T15:10:44.587Z,28.67
2018-03-15T15:13:13.589Z,28.47
2018-03-15T15:15:42.600Z,28.90
2018-03-15T15:18:10.844Z,28.23
2018-03-15T15:20:39.084Z,28.10
2018-03-15T15:23:07.312Z,27.37
2018-03-15T15:25:35.556Z,26.67
2018-03-15T15:28:03.790Z,27.20
2018-03-15T15:30:32.041Z,28.67
2018-03-15T15:33:00.268Z,28.63
2018-03-15T15:35:28.516Z,28.80
2018-03-15T15:37:56.738Z,29.40
2018-03-15T15:40:25.748Z,27.33
2018-03-15T15:42:53.981Z,27.17
2018-03-15T15:45:22.233Z,28.70
2018-03-15T15:47:50.460Z,27.17
2018-03-15T15:50:19.520Z,28.03
2018-03-15T15:52:47.709Z,28.07
2018-03-15T15:55:16.724Z,27.47
2018-03-15T15:57:45.388Z,27.70
2018-03-15T16:00:13.624Z,28.60
2018-03-15T16:02:41.874Z,27.97
2018-03-15T16:05:10.116Z,27.63
2018-03-15T16:07:39.107Z,27.93
2018-03-15T16:10:08.109Z,28.13
2018-03-15T16:12:37.140Z,28.27
2018-03-15T16:15:05.353Z,26.60
2018-03-15T16:17:33.598Z,26.70
2018-03-15T16:20:01.832Z,28.93
2018-03-15T16:22:30.079Z,27.07
2018-03-15T16:24:59.077Z,26.33
2018-03-15T16:27:28.093Z,28.07
2018-03-15T16:29:56.325Z,26.63
2018-03-15T16:32:24.572Z,27.90
2018-03-15T16:34:52.804Z,27.00
2018-03-15T16:37:21.046Z,25.73
2018-03-15T16:39:49.285Z,28.30
2018-03-15T16:42:17.533Z,26.77
2018-03-15T16:44:45.767Z,26.80
2018-03-15T16:47:14.000Z,26.17
2018-03-15T16:49:42.629Z,26.60
2018-03-15T16:52:10.844Z,25.57
2018-03-15T16:54:39.077Z,26.17
2018-03-15T16:57:07.325Z,25.53
2018-03-15T16:59:35.557Z,25.73
2018-03-15T17:02:03.805Z,25.03
2018-03-15T17:04:32.801Z,25.03
2018-03-15T17:07:01.822Z,26.33
2018-03-15T17:09:30.469Z,27.63
2018-03-15T17:11:58.708Z,25.93
2018-03-15T17:14:26.949Z,26.37
2018-03-15T17:16:55.184Z,26.17
2018-03-15T17:19:23.420Z,26.03
2018-03-15T17:21:52.444Z,27.87
2018-03-15T17:24:20.683Z,28.17
2018-03-15T17:26:48.920Z,26.57
2018-03-15T17:29:17.172Z,27.53
2018-03-15T17:31:46.181Z,28.03
2018-03-15T17:34:15.198Z,26.43
2018-03-15T17:36:43.433Z,26.93
2018-03-15T17:39:12.452Z,29.63
2018-03-15T17:41:40.684Z,29.43
2018-03-15T17:44:08.922Z,42.13
2018-03-15T17:46:37.168Z,29.50
2018-03-15T17:49:05.737Z,30.47
2018-03-15T17:51:34.721Z,31.80
2018-03-15T17:54:03.729Z,32.50
2018-03-15T17:56:31.955Z,34.53
2018-03-15T17:59:00.197Z,31.80
2018-03-15T18:01:28.425Z,38.33
2018-03-15T18:03:56.692Z,35.03
2018-03-15T18:06:24.901Z,31.43
2018-03-15T18:08:53.149Z,32.33
2018-03-15T18:11:21.380Z,31.67
2018-03-15T18:13:49.632Z,33.93
2018-03-15T18:16:17.875Z,33.87
2018-03-15T18:18:46.102Z,34.33
2018-03-15T18:21:14.350Z,33.23
2018-03-15T18:23:42.572Z,34.87
2018-03-15T18:26:10.817Z,33.70
2018-03-15T18:28:39.050Z,35.33
2018-03-15T18:31:08.349Z,35.73
2018-03-15T18:33:36.573Z,33.27
2018-03-15T18:36:04.823Z,33.20
2018-03-15T18:38:33.051Z,36.43
2018-03-15T18:41:01.298Z,35.43
2018-03-15T18:43:30.289Z,33.47
2018-03-15T18:45:58.552Z,33.20
2018-03-15T18:48:26.783Z,33.33
2018-03-15T18:50:55.793Z,38.33
2018-03-15T18:53:24.032Z,34.67
2018-03-15T18:55:52.277Z,31.97
2018-03-15T18:58:20.560Z,33.43
2018-03-15T19:00:48.808Z,33.80
2018-03-15T19:03:17.045Z,30.33
2018-03-15T19:05:46.067Z,30.57
2018-03-15T19:08:14.321Z,34.57
2018-03-15T19:10:42.569Z,30.97
2018-03-15T19:13:10.801Z,32.27
2018-03-15T19:15:39.061Z,29.77
2018-03-15T19:18:07.294Z,32.33
2018-03-15T19:20:35.524Z,30.47
2018-03-15T19:23:03.768Z,31.13
2018-03-15T19:25:32.008Z,30.43
2018-03-15T19:28:00.252Z,33.47
2018-03-15T19:30:28.485Z,33.37
2018-03-15T19:32:56.736Z,28.93
2018-03-15T19:35:24.964Z,28.07
2018-03-15T19:37:53.218Z,32.43
2018-03-15T19:40:21.454Z,30.23
2018-03-15T19:42:49.688Z,29.63
2018-03-15T19:45:17.916Z,30.30
2018-03-15T19:47:46.934Z,28.40
2018-03-15T19:50:15.169Z,32.30
2018-03-15T19:52:43.408Z,29.93
2018-03-15T19:55:11.638Z,30.40
2018-03-15T19:57:39.882Z,28.87
2018-03-15T20:00:08.113Z,30.10
2018-03-15T20:02:36.361Z,30.70
2018-03-15T20:05:04.598Z,30.97
2018-03-15T20:07:32.846Z,29.40
2018-03-15T20:10:01.072Z,29.93
2018-03-15T20:12:30.089Z,31.13
2018-03-15T20:14:58.320Z,33.40
2018-03-15T20:17:26.566Z,31.17
2018-03-15T20:19:54.797Z,33.07
2018-03-15T20:22:28.654Z,33.17
2018-03-15T20:24:56.888Z,35.40
2018-03-15T20:27:30.700Z,35.60
2018-03-15T20:29:58.938Z,34.30
2018-03-15T20:32:33.662Z,38.33
2018-03-15T20:35:02.658Z,35.23
2018-03-15T20:37:31.660Z,40.00
2018-03-15T20:40:05.541Z,34.43
2018-03-15T20:42:33.768Z,40.97
2018-03-15T20:45:02.013Z,37.67
2018-03-15T20:47:35.933Z,38.20
2018-03-15T20:50:04.186Z,39.43
2018-03-15T20:52:33.180Z,39.30
2018-03-15T20:55:02.192Z,39.33
2018-03-15T20:57:30.424Z,40.50
2018-03-15T20:59:58.690Z,40.57
2018-03-15T21:02:26.893Z,40.47
2018-03-15T21:04:55.906Z,41.50
2018-03-15T21:07:24.136Z,41.07
2018-03-15T21:09:52.384Z,40.17
2018-03-15T21:12:20.614Z,43.20
2018-03-15T21:14:48.856Z,39.97
2018-03-15T21:17:17.091Z,42.90
2018-03-15T21:19:45.374Z,43.17
2018-03-15T21:22:13.561Z,48.57
2018-03-15T21:24:41.814Z,44.13
2018-03-15T21:27:10.114Z,44.53
2018-03-15T21:29:39.061Z,45.73
2018-03-15T21:32:07.303Z,44.93
2018-03-15T21:34:36.317Z,48.47
2018-03-15T21:37:04.552Z,45.80
2018-03-15T21:39:32.778Z,45.87
2018-03-15T21:42:01.020Z,48.47
2018-03-15T21:44:30.022Z,46.73
2018-03-15T21:46:58.272Z,49.33
2018-03-15T21:49:27.277Z,53.87
2018-03-15T21:51:56.287Z,52.87
2018-03-15T21:54:24.523Z,52.40
2018-03-15T21:56:52.770Z,53.63
2018-03-15T21:59:21.073Z,54.00
2018-03-15T22:01:49.295Z,53.87
2018-03-15T22:04:17.525Z,56.63
2018-03-15T22:06:45.773Z,59.00
2018-03-15T22:09:14.001Z,59.17
2018-03-15T22:11:42.247Z,55.00
2018-03-15T22:14:10.472Z,58.20
2018-03-15T22:16:38.715Z,61.43
2018-03-15T22:19:06.949Z,60.00
2018-03-15T22:21:35.196Z,59.67
2018-03-15T22:24:03.429Z,58.30
2018-03-15T22:26:32.449Z,61.07
2018-03-15T22:29:00.676Z,61.97
2018-03-15T22:31:28.925Z,61.97
2018-03-15T22:33:57.161Z,62.57
2018-03-15T22:36:25.404Z,63.00
2018-03-15T22:38:54.417Z,60.93
2018-03-15T22:41:22.669Z,64.90
2018-03-15T22:43:51.656Z,64.40
2018-03-15T22:46:20.675Z,63.83
2018-03-15T22:48:49.430Z,63.20
2018-03-15T22:51:17.628Z,59.93
2018-03-15T22:53:46.640Z,67.93
2018-03-15T22:56:14.878Z,64.27
2018-03-15T22:58:43.929Z,63.17
2018-03-15T23:01:12.165Z,65.47
2018-03-15T23:03:40.415Z,66.20
2018-03-15T23:06:08.641Z,72.20
2018-03-15T23:08:36.883Z,68.00
2018-03-15T23:11:05.881Z,61.73
2018-03-15T23:13:34.127Z,66.57
2018-03-15T23:16:02.352Z,69.53
2018-03-15T23:18:30.600Z,65.17
2018-03-15T23:20:58.828Z,65.33
2018-03-15T23:23:27.068Z,65.27
2018-03-15T23:25:55.296Z,66.10
2018-03-15T23:28:24.309Z,63.30
2018-03-15T23:30:52.544Z,65.40
2018-03-15T23:33:20.784Z,69.77
2018-03-15T23:35:49.016Z,67.07
2018-03-15T23:38:18.028Z,64.53
2018-03-15T23:40:46.273Z,63.63
2018-03-15T23:43:14.507Z,67.33
2018-03-15T23:45:42.861Z,68.03
2018-03-15T23:48:11.109Z,70.20
2018-03-15T23:50:40.114Z,64.83
2018-03-15T23:53:08.350Z,63.73
2018-03-15T23:55:36.588Z,68.63
2018-03-15T23:58:04.828Z,69.10
